Time;durP1;ratioP1;P1;durP2;ratioP2;P2;SDS_P1;SDS_P2;PMS_P1;PMS_P2;Temp;Humidity;BMP_temperature;BMP_pressure;BME280_temperature;BME280_humidity;BME280_pressure;Samples;Min_cycle;Max_cycle;Signal;HPM_P1;HPM_P2
2022/10/16 00:00:39;;;;;;;33.97;23.30;;;;;;;;;;5080665;28;20024;-73
2022/10/16 00:03:05;;;;;;;26.27;19.50;;;;;;;;;;5080389;28;20454;-73
2022/10/16 00:05:30;;;;;;;26.05;18.02;;;;;;;;;;5068728;28;20028;-73
2022/10/16 00:07:56;;;;;;;31.85;23.17;;;;;;;;;;5068902;28;20459;-74
2022/10/16 00:10:21;;;;;;;54.22;37.10;;;;;;;;;;5073411;28;20446;-75
2022/10/16 00:12:47;;;;;;;53.40;40.40;;;;;;;;;;5072316;28;20055;-74
2022/10/16 00:15:12;;;;;;;57.47;41.58;;;;;;;;;;5078466;28;20035;-74
2022/10/16 00:17:37;;;;;;;62.53;43.40;;;;;;;;;;5078734;28;20024;-74
2022/10/16 00:20:03;;;;;;;66.45;45.50;;;;;;;;;;5079974;28;20028;-74
2022/10/16 00:22:28;;;;;;;49.83;35.33;;;;;;;;;;5079670;28;20077;-73
2022/10/16 00:24:54;;;;;;;35.90;24.15;;;;;;;;;;5071643;28;20089;-74
2022/10/16 00:27:19;;;;;;;26.25;19.70;;;;;;;;;;5078434;28;20089;-75
2022/10/16 00:29:45;;;;;;;27.33;19.17;;;;;;;;;;5067969;28;20020;-72
2022/10/16 00:32:10;;;;;;;27.92;20.13;;;;;;;;;;5079261;28;20038;-74
2022/10/16 00:34:35;;;;;;;20.60;18.15;;;;;;;;;;5080250;28;20067;-76
2022/10/16 00:37:01;;;;;;;20.13;16.23;;;;;;;;;;5080054;28;20028;-76
2022/10/16 00:39:26;;;;;;;22.38;15.85;;;;;;;;;;5079710;28;20028;-75
2022/10/16 00:41:51;;;;;;;14.05;10.52;;;;;;;;;;5079819;28;20039;-76
2022/10/16 00:44:36;;;;;;;17.55;9.82;;;;;;;;;;5080057;28;20032;-75
2022/10/16 00:47:01;;;;;;;16.02;12.57;;;;;;;;;;5078969;28;20048;-75
2022/10/16 00:49:26;;;;;;;17.13;14.20;;;;;;;;;;5078621;28;20029;-74
2022/10/16 00:51:53;;;;;;;25.45;18.08;;;;;;;;;;5079688;28;20073;-75
2022/10/16 00:54:23;;;;;;;26.23;19.55;;;;;;;;;;5078789;28;20482;-76
2022/10/16 00:56:49;;;;;;;24.13;19.88;;;;;;;;;;5068395;28;20024;-75
2022/10/16 00:59:20;;;;;;;27.42;20.45;;;;;;;;;;5074260;28;20123;-76
2022/10/16 01:01:46;;;;;;;25.55;20.55;;;;;;;;;;5070572;28;20522;-75
2022/10/16 01:04:11;;;;;;;40.38;31.38;;;;;;;;;;5080140;28;20150;-75
2022/10/16 01:06:40;;;;;;;44.55;33.55;;;;;;;;;;5076868;28;20028;-75
2022/10/16 01:09:23;;;;;;;49.72;36.90;;;;;;;;;;5078687;28;20028;-75
2022/10/16 01:11:55;;;;;;;30.80;23.45;;;;;;;;;;5079160;28;20043;-74
2022/10/16 01:14:39;;;;;;;31.80;23.50;;;;;;;;;;5079687;28;20023;-76
2022/10/16 01:17:06;;;;;;;24.75;17.30;;;;;;;;;;5077092;28;20060;-74
2022/10/16 01:19:44;;;;;;;19.02;14.98;;;;;;;;;;5078788;28;20363;-75
2022/10/16 01:22:10;;;;;;;17.70;13.00;;;;;;;;;;5078434;28;20444;-74
2022/10/16 01:24:39;;;;;;;18.73;14.18;;;;;;;;;;5078657;28;20123;-73
2022/10/16 01:27:20;;;;;;;19.48;13.55;;;;;;;;;;5079502;28;20024;-75
2022/10/16 01:29:57;;;;;;;15.65;11.77;;;;;;;;;;5078290;28;20046;-74
2022/10/16 01:32:40;;;;;;;18.17;12.95;;;;;;;;;;5079114;28;20024;-74
2022/10/16 01:35:15;;;;;;;13.93;9.68;;;;;;;;;;5078778;28;20069;-74
2022/10/16 01:37:43;;;;;;;15.38;9.18;;;;;;;;;;5080072;28;20043;-74
2022/10/16 01:40:10;;;;;;;12.15;8.85;;;;;;;;;;5078585;28;20081;-74
2022/10/16 01:42:39;;;;;;;12.90;9.25;;;;;;;;;;5076716;28;20127;-73
2022/10/16 01:45:07;;;;;;;12.47;9.27;;;;;;;;;;5079451;28;20074;-75
2022/10/16 01:47:33;;;;;;;13.43;9.95;;;;;;;;;;5079311;28;20040;-72
2022/10/16 01:49:59;;;;;;;14.93;11.02;;;;;;;;;;5078837;28;20035;-73
2022/10/16 01:52:26;;;;;;;15.82;11.75;;;;;;;;;;5079610;28;20024;-75
2022/10/16 01:54:53;;;;;;;18.30;12.52;;;;;;;;;;5067651;28;20074;-72
2022/10/16 01:57:20;;;;;;;21.98;15.27;;;;;;;;;;5078398;28;20032;-74
2022/10/16 01:59:47;;;;;;;26.35;18.15;;;;;;;;;;5078880;28;20193;-74
2022/10/16 02:02:15;;;;;;;26.58;18.83;;;;;;;;;;5079072;28;20077;-73
2022/10/16 02:04:53;;;;;;;21.90;17.40;;;;;;;;;;5078684;28;20096;-73
2022/10/16 02:07:18;;;;;;;32.22;22.90;;;;;;;;;;5077246;28;20463;-72
2022/10/16 02:09:43;;;;;;;37.40;25.55;;;;;;;;;;5077132;28;20056;-72
2022/10/16 02:12:19;;;;;;;32.70;23.42;;;;;;;;;;5078352;28;20110;-74
2022/10/16 02:14:44;;;;;;;29.13;20.48;;;;;;;;;;5078752;28;20028;-71
2022/10/16 02:17:13;;;;;;;22.98;16.27;;;;;;;;;;5077338;28;20024;-72
2022/10/16 02:19:39;;;;;;;23.73;18.40;;;;;;;;;;5078285;28;20101;-73
2022/10/16 02:22:05;;;;;;;20.90;15.40;;;;;;;;;;5077299;28;20451;-73
2022/10/16 02:24:33;;;;;;;20.45;14.55;;;;;;;;;;5078816;28;20032;-73
2022/10/16 02:27:02;;;;;;;26.52;18.35;;;;;;;;;;5076490;28;20089;-73
2022/10/16 02:29:27;;;;;;;30.38;23.00;;;;;;;;;;5077467;28;20416;-73
2022/10/16 02:31:59;;;;;;;31.80;22.30;;;;;;;;;;5082741;28;20031;-73
2022/10/16 02:34:26;;;;;;;41.30;27.60;;;;;;;;;;5082080;28;20063;-74
2022/10/16 02:36:52;;;;;;;72.95;44.25;;;;;;;;;;5081305;28;20363;-73
2022/10/16 02:39:18;;;;;;;60.92;36.72;;;;;;;;;;5082187;28;20031;-74
2022/10/16 02:41:43;;;;;;;43.78;25.13;;;;;;;;;;5081526;28;20028;-75
2022/10/16 02:44:09;;;;;;;37.17;20.85;;;;;;;;;;5082766;28;20032;-74
2022/10/16 02:46:34;;;;;;;24.23;16.70;;;;;;;;;;5081111;28;20055;-75
2022/10/16 02:48:59;;;;;;;18.90;12.93;;;;;;;;;;5082753;28;20470;-74
2022/10/16 02:51:25;;;;;;;17.80;11.73;;;;;;;;;;5081923;28;20339;-74
2022/10/16 02:53:50;;;;;;;13.20;10.07;;;;;;;;;;5082095;28;20036;-74
2022/10/16 02:56:15;;;;;;;11.65;8.95;;;;;;;;;;5081362;28;20096;-75
2022/10/16 02:58:41;;;;;;;16.27;10.35;;;;;;;;;;5078938;28;20024;-75
2022/10/16 03:01:06;;;;;;;16.23;10.23;;;;;;;;;;5081725;28;20449;-72
2022/10/16 03:03:31;;;;;;;14.52;11.48;;;;;;;;;;5081031;28;20067;-73
2022/10/16 03:05:57;;;;;;;15.90;11.27;;;;;;;;;;5082132;28;20028;-76
2022/10/16 03:08:24;;;;;;;15.07;12.45;;;;;;;;;;5081580;28;20077;-72
2022/10/16 03:10:50;;;;;;;14.25;11.40;;;;;;;;;;5082352;28;20031;-73
2022/10/16 03:13:15;;;;;;;17.33;11.93;;;;;;;;;;5081998;28;20020;-72
2022/10/16 03:15:41;;;;;;;26.25;15.52;;;;;;;;;;5081068;28;20047;-73
2022/10/16 03:18:06;;;;;;;22.63;15.57;;;;;;;;;;5075491;28;20032;-74
2022/10/16 03:20:31;;;;;;;24.52;15.82;;;;;;;;;;5078013;28;20462;-74
2022/10/16 03:22:57;;;;;;;24.58;15.70;;;;;;;;;;5081154;28;20036;-73
2022/10/16 03:25:22;;;;;;;23.90;17.27;;;;;;;;;;5080711;28;20344;-73
2022/10/16 03:27:47;;;;;;;25.73;18.63;;;;;;;;;;5081652;28;20466;-72
2022/10/16 03:30:13;;;;;;;45.85;29.60;;;;;;;;;;5081730;28;20352;-73
2022/10/16 03:32:38;;;;;;;64.90;41.15;;;;;;;;;;5080883;28;20028;-73
2022/10/16 03:35:04;;;;;;;89.95;52.05;;;;;;;;;;5079796;28;20027;-75
2022/10/16 03:37:29;;;;;;;93.32;57.13;;;;;;;;;;5080651;28;20056;-74
2022/10/16 03:39:54;;;;;;;63.75;38.75;;;;;;;;;;5080785;28;20428;-74
2022/10/16 03:42:20;;;;;;;33.58;22.30;;;;;;;;;;5070617;28;20408;-74
2022/10/16 03:44:45;;;;;;;23.98;16.13;;;;;;;;;;5073828;28;20024;-73
2022/10/16 03:47:11;;;;;;;40.50;27.65;;;;;;;;;;5078328;28;20422;-73
2022/10/16 03:49:36;;;;;;;50.83;32.53;;;;;;;;;;5079634;28;20043;-74
2022/10/16 03:52:01;;;;;;;46.70;28.00;;;;;;;;;;5081121;28;20043;-74
2022/10/16 03:54:27;;;;;;;26.00;16.92;;;;;;;;;;5078866;28;20091;-74
2022/10/16 03:56:52;;;;;;;26.20;18.40;;;;;;;;;;5080466;28;20033;-72
2022/10/16 03:59:17;;;;;;;27.25;18.90;;;;;;;;;;5077510;28;20358;-73
2022/10/16 04:01:43;;;;;;;29.85;20.55;;;;;;;;;;5074407;28;20036;-74
2022/10/16 04:04:08;;;;;;;27.33;19.38;;;;;;;;;;5080867;28;20020;-73
2022/10/16 04:06:34;;;;;;;20.20;14.35;;;;;;;;;;5079732;28;20024;-74
2022/10/16 04:08:59;;;;;;;16.30;12.55;;;;;;;;;;5079875;28;20032;-72
2022/10/16 04:11:24;;;;;;;15.52;12.40;;;;;;;;;;5076282;28;20099;-72
2022/10/16 04:13:50;;;;;;;15.32;10.82;;;;;;;;;;5073095;28;20024;-73
2022/10/16 04:16:15;;;;;;;12.15;9.23;;;;;;;;;;5081349;28;20732;-72
2022/10/16 04:18:40;;;;;;;14.57;9.48;;;;;;;;;;5079616;28;20035;-72
2022/10/16 04:21:06;;;;;;;13.30;10.65;;;;;;;;;;5081063;28;20439;-74
2022/10/16 04:23:32;;;;;;;19.40;13.82;;;;;;;;;;5078525;28;20365;-72
2022/10/16 04:25:57;;;;;;;31.55;21.95;;;;;;;;;;5080293;28;20016;-73
2022/10/16 04:28:23;;;;;;;33.08;22.38;;;;;;;;;;5073754;28;20032;-73
2022/10/16 04:30:48;;;;;;;30.58;23.33;;;;;;;;;;5063495;28;20023;-74
2022/10/16 04:33:13;;;;;;;33.90;22.48;;;;;;;;;;5063440;28;20035;-73
2022/10/16 04:35:39;;;;;;;36.83;24.25;;;;;;;;;;5072898;28;20108;-73
2022/10/16 04:38:04;;;;;;;69.18;39.47;;;;;;;;;;5066946;28;20058;-73
2022/10/16 04:40:32;;;;;;;71.35;44.08;;;;;;;;;;5072730;28;20026;-73
2022/10/16 04:42:58;;;;;;;65.72;42.30;;;;;;;;;;5067899;28;20035;-74
2022/10/16 04:45:23;;;;;;;60.55;39.72;;;;;;;;;;5067734;28;20032;-74
2022/10/16 04:47:49;;;;;;;47.35;31.17;;;;;;;;;;5068995;28;20590;-73
2022/10/16 04:50:14;;;;;;;70.15;42.05;;;;;;;;;;5067544;28;20048;-74
2022/10/16 04:52:39;;;;;;;65.22;41.95;;;;;;;;;;5067153;28;20500;-74
2022/10/16 04:55:05;;;;;;;56.20;33.75;;;;;;;;;;5067850;28;20036;-74
2022/10/16 04:57:31;;;;;;;46.15;30.67;;;;;;;;;;5068507;28;20085;-75
2022/10/16 04:59:56;;;;;;;38.42;24.33;;;;;;;;;;5068109;28;20132;-74
2022/10/16 05:02:21;;;;;;;31.48;22.45;;;;;;;;;;5068288;28;20443;-73
2022/10/16 05:04:47;;;;;;;49.67;37.88;;;;;;;;;;5068029;28;20103;-74
2022/10/16 05:07:12;;;;;;;104.30;71.18;;;;;;;;;;5067260;28;20333;-74
2022/10/16 05:09:38;;;;;;;89.57;67.10;;;;;;;;;;5068626;28;20428;-73
2022/10/16 05:12:03;;;;;;;109.05;81.85;;;;;;;;;;5066523;28;20028;-74
2022/10/16 05:14:29;;;;;;;138.48;103.68;;;;;;;;;;5066318;28;20024;-73
2022/10/16 05:16:54;;;;;;;145.38;102.05;;;;;;;;;;5066964;28;20028;-74
2022/10/16 05:19:20;;;;;;;106.53;77.78;;;;;;;;;;5066684;28;20115;-74
2022/10/16 05:21:45;;;;;;;95.70;66.97;;;;;;;;;;5067683;28;20028;-73
2022/10/16 05:24:10;;;;;;;85.22;62.47;;;;;;;;;;5071015;28;22716;-74
2022/10/16 05:26:36;;;;;;;50.92;38.08;;;;;;;;;;5078753;28;20381;-73
2022/10/16 05:29:01;;;;;;;35.22;24.38;;;;;;;;;;5079938;28;20081;-73
2022/10/16 05:31:26;;;;;;;23.95;15.48;;;;;;;;;;5071996;28;20802;-73
2022/10/16 05:33:52;;;;;;;30.73;17.75;;;;;;;;;;5072960;28;20028;-74
2022/10/16 05:36:18;;;;;;;32.00;21.48;;;;;;;;;;5078502;28;20028;-75
2022/10/16 05:38:43;;;;;;;28.27;19.73;;;;;;;;;;5078663;28;20039;-74
2022/10/16 05:41:09;;;;;;;22.67;18.20;;;;;;;;;;5078364;28;20028;-74
2022/10/16 05:43:34;;;;;;;25.58;19.30;;;;;;;;;;5078049;28;20043;-76
2022/10/16 05:46:01;;;;;;;24.67;18.42;;;;;;;;;;5077265;28;20070;-76
2022/10/16 05:48:26;;;;;;;28.25;17.88;;;;;;;;;;5067987;28;20478;-74
2022/10/16 05:50:59;;;;;;;24.55;18.83;;;;;;;;;;5076202;28;20085;-74
2022/10/16 05:53:25;;;;;;;24.50;16.65;;;;;;;;;;5067891;28;20051;-75
2022/10/16 05:55:55;;;;;;;19.63;12.88;;;;;;;;;;5075928;28;20024;-74
2022/10/16 05:58:21;;;;;;;19.77;16.75;;;;;;;;;;5066699;28;20035;-74
2022/10/16 06:00:57;;;;;;;29.15;21.30;;;;;;;;;;5076652;28;20023;-74
2022/10/16 06:03:22;;;;;;;30.88;20.75;;;;;;;;;;5067572;28;20098;-75
2022/10/16 06:05:48;;;;;;;82.50;64.57;;;;;;;;;;5081238;28;20024;-74
2022/10/16 06:08:13;;;;;;;33.95;26.75;;;;;;;;;;5083427;28;20308;-76
2022/10/16 06:10:38;;;;;;;31.23;25.80;;;;;;;;;;5083252;28;20031;-76
2022/10/16 06:13:04;;;;;;;35.78;27.55;;;;;;;;;;5083887;28;20390;-75
2022/10/16 06:15:29;;;;;;;44.05;34.15;;;;;;;;;;5081906;28;20036;-74
2022/10/16 06:17:54;;;;;;;46.42;37.58;;;;;;;;;;5082712;28;20031;-73
2022/10/16 06:20:20;;;;;;;88.25;70.47;;;;;;;;;;5081483;28;20028;-72
2022/10/16 06:22:45;;;;;;;78.15;67.13;;;;;;;;;;5080392;28;20664;-73
2022/10/16 06:25:11;;;;;;;83.45;70.55;;;;;;;;;;5079484;28;20028;-75
2022/10/16 06:27:38;;;;;;;122.65;98.80;;;;;;;;;;5082234;28;20060;-74
2022/10/16 06:30:04;;;;;;;121.95;98.68;;;;;;;;;;5081810;28;20081;-74
2022/10/16 06:32:29;;;;;;;63.35;51.10;;;;;;;;;;5079914;28;20027;-74
2022/10/16 06:34:55;;;;;;;46.22;40.65;;;;;;;;;;5070364;28;20028;-73
2022/10/16 06:37:21;;;;;;;39.58;35.08;;;;;;;;;;5069898;28;20035;-75
2022/10/16 06:39:47;;;;;;;41.05;35.50;;;;;;;;;;5076461;28;20020;-74
2022/10/16 06:42:12;;;;;;;37.40;31.77;;;;;;;;;;5074127;28;20092;-75
2022/10/16 06:44:37;;;;;;;32.22;28.73;;;;;;;;;;5076991;28;20337;-76
2022/10/16 06:47:03;;;;;;;27.17;23.73;;;;;;;;;;5069976;28;20052;-76
2022/10/16 06:49:28;;;;;;;29.42;23.40;;;;;;;;;;5082547;28;20113;-75
2022/10/16 06:51:54;;;;;;;121.15;80.20;;;;;;;;;;5082562;28;20114;-75
2022/10/16 06:54:19;;;;;;;94.32;65.35;;;;;;;;;;5083205;28;20101;-75
2022/10/16 06:56:45;;;;;;;46.63;37.90;;;;;;;;;;5082759;28;20110;-76
2022/10/16 06:59:10;;;;;;;45.67;38.33;;;;;;;;;;5081909;28;20447;-75
2022/10/16 07:01:35;;;;;;;42.28;35.92;;;;;;;;;;5082678;28;20047;-73
2022/10/16 07:04:01;;;;;;;43.70;37.03;;;;;;;;;;5087455;28;20020;-75
2022/10/16 07:06:30;;;;;;;33.47;28.23;;;;;;;;;;5081217;28;20034;-74
2022/10/16 07:08:55;;;;;;;46.78;39.85;;;;;;;;;;5080810;28;20020;-73
2022/10/16 07:11:21;;;;;;;35.47;25.90;;;;;;;;;;5081585;28;20031;-75
2022/10/16 07:13:47;;;;;;;40.20;35.80;;;;;;;;;;5070895;28;20441;-75
2022/10/16 07:16:14;;;;;;;29.98;24.88;;;;;;;;;;5080080;28;20028;-75
2022/10/16 07:18:41;;;;;;;23.95;19.90;;;;;;;;;;5082862;28;20032;-76
2022/10/16 07:21:08;;;;;;;22.65;19.27;;;;;;;;;;5081320;28;20028;-75
2022/10/16 07:23:33;;;;;;;22.65;19.73;;;;;;;;;;5082727;28;20061;-75
2022/10/16 07:25:59;;;;;;;24.88;22.02;;;;;;;;;;5081979;28;20429;-75
2022/10/16 07:28:24;;;;;;;22.50;17.63;;;;;;;;;;5081435;28;20043;-74
2022/10/16 07:30:50;;;;;;;17.05;15.05;;;;;;;;;;5082086;28;20085;-74
2022/10/16 07:33:15;;;;;;;28.38;23.35;;;;;;;;;;5080540;28;20055;-75
2022/10/16 07:35:51;;;;;;;18.83;16.35;;;;;;;;;;5080859;28;20028;-73
2022/10/16 07:38:16;;;;;;;26.38;23.33;;;;;;;;;;5080450;28;20031;-73
2022/10/16 07:40:41;;;;;;;29.15;23.42;;;;;;;;;;5080756;28;20016;-74
2022/10/16 07:43:07;;;;;;;28.67;22.48;;;;;;;;;;5081532;28;20040;-75
2022/10/16 07:45:32;;;;;;;27.27;22.85;;;;;;;;;;5081429;28;20028;-75
2022/10/16 07:47:57;;;;;;;26.90;22.90;;;;;;;;;;5078270;28;21067;-73
2022/10/16 07:50:23;;;;;;;23.08;20.48;;;;;;;;;;5069521;28;20028;-73
2022/10/16 07:52:48;;;;;;;25.35;19.67;;;;;;;;;;5073915;28;20063;-74
2022/10/16 07:55:13;;;;;;;30.52;25.30;;;;;;;;;;5069145;28;20079;-73
2022/10/16 07:57:39;;;;;;;28.65;22.02;;;;;;;;;;5069411;28;20031;-74
2022/10/16 08:00:04;;;;;;;21.85;18.40;;;;;;;;;;5069517;28;20107;-73
2022/10/16 08:02:31;;;;;;;26.65;22.98;;;;;;;;;;5079573;28;20081;-74
2022/10/16 08:04:56;;;;;;;21.45;15.65;;;;;;;;;;5080724;28;20020;-74
2022/10/16 08:07:21;;;;;;;37.63;33.67;;;;;;;;;;5080783;28;20560;-74
2022/10/16 08:09:49;;;;;;;27.17;24.05;;;;;;;;;;5080745;28;20532;-73
2022/10/16 08:12:14;;;;;;;20.20;17.55;;;;;;;;;;5080890;28;20118;-74
2022/10/16 08:14:40;;;;;;;30.83;23.58;;;;;;;;;;5081616;28;20114;-74
2022/10/16 08:17:05;;;;;;;23.02;15.55;;;;;;;;;;5075627;28;20086;-79
2022/10/16 08:19:34;;;;;;;16.58;14.80;;;;;;;;;;5074536;28;20035;-78
2022/10/16 08:21:59;;;;;;;19.63;13.57;;;;;;;;;;5081013;28;20094;-76
2022/10/16 08:24:24;;;;;;;28.88;22.05;;;;;;;;;;5081579;28;20431;-79
2022/10/16 08:26:50;;;;;;;21.83;18.55;;;;;;;;;;5071357;28;20081;-77
2022/10/16 08:29:15;;;;;;;17.50;14.23;;;;;;;;;;5067159;28;20020;-78
2022/10/16 08:31:41;;;;;;;15.45;12.85;;;;;;;;;;5065980;28;20024;-76
2022/10/16 08:34:06;;;;;;;19.60;15.43;;;;;;;;;;5072774;28;20051;-76
2022/10/16 08:36:31;;;;;;;21.20;19.00;;;;;;;;;;5080704;28;20036;-77
2022/10/16 08:38:57;;;;;;;26.98;23.83;;;;;;;;;;5080634;28;20020;-76
2022/10/16 08:41:26;;;;;;;18.23;16.33;;;;;;;;;;5080577;28;20435;-77
2022/10/16 08:43:57;;;;;;;16.97;15.27;;;;;;;;;;5079732;28;20043;-77
2022/10/16 08:47:00;;;;;;;17.48;13.20;;;;;;;;;;5074179;28;20569;-75
2022/10/16 08:49:25;;;;;;;18.88;16.30;;;;;;;;;;4999068;28;20041;-74
2022/10/16 08:51:51;;;;;;;14.85;13.05;;;;;;;;;;4991539;28;20046;-75
2022/10/16 08:54:22;;;;;;;16.63;14.90;;;;;;;;;;4990923;28;20041;-75
2022/10/16 08:56:47;;;;;;;25.13;22.42;;;;;;;;;;4998314;28;20032;-74
2022/10/16 08:59:13;;;;;;;18.88;15.25;;;;;;;;;;5006403;28;20029;-74
2022/10/16 09:01:41;;;;;;;19.88;17.85;;;;;;;;;;4996404;28;20363;-76
2022/10/16 09:04:06;;;;;;;26.85;21.13;;;;;;;;;;4999106;28;20789;-74
2022/10/16 09:06:37;;;;;;;18.67;14.57;;;;;;;;;;4995869;28;20065;-76
2022/10/16 09:09:19;;;;;;;18.40;14.82;;;;;;;;;;5005365;28;20104;-75
2022/10/16 09:12:00;;;;;;;13.50;11.52;;;;;;;;;;5005050;28;20116;-76
2022/10/16 09:14:47;;;;;;;28.13;25.23;;;;;;;;;;5003464;28;20064;-76
2022/10/16 09:17:12;;;;;;;14.57;10.82;;;;;;;;;;5002146;28;20037;-76
2022/10/16 09:19:39;;;;;;;14.52;13.02;;;;;;;;;;4994788;28;20034;-77
2022/10/16 09:22:14;;;;;;;14.55;12.50;;;;;;;;;;5003438;28;20048;-76
2022/10/16 09:24:39;;;;;;;12.80;10.98;;;;;;;;;;5079609;28;20035;-77
2022/10/16 09:27:04;;;;;;;13.02;10.85;;;;;;;;;;5076345;28;20504;-76
2022/10/16 09:29:30;;;;;;;14.23;9.77;;;;;;;;;;5069947;28;20016;-77
2022/10/16 09:31:57;;;;;;;11.77;9.55;;;;;;;;;;5077084;28;20020;-76
2022/10/16 09:34:36;;;;;;;13.02;9.10;;;;;;;;;;5072887;28;20190;-76
2022/10/16 09:37:09;;;;;;;13.43;9.70;;;;;;;;;;5067585;28;20077;-75
2022/10/16 09:39:45;;;;;;;13.18;9.50;;;;;;;;;;5066740;28;20366;-75
2022/10/16 09:42:13;;;;;;;11.38;8.02;;;;;;;;;;5065627;28;20039;-75
2022/10/16 09:44:38;;;;;;;9.85;8.55;;;;;;;;;;5065601;28;20032;-75
2022/10/16 09:47:18;;;;;;;11.57;9.55;;;;;;;;;;5078008;28;20050;-75
2022/10/16 09:50:10;;;;;;;10.18;8.43;;;;;;;;;;5080416;28;20056;-74
2022/10/16 09:52:35;;;;;;;12.75;11.27;;;;;;;;;;5063418;28;20048;-74
2022/10/16 09:55:03;;;;;;;12.60;10.07;;;;;;;;;;5080172;28;20342;-74
2022/10/16 09:57:29;;;;;;;17.65;15.82;;;;;;;;;;5073547;28;20157;-77
2022/10/16 09:59:56;;;;;;;15.20;11.63;;;;;;;;;;5070960;28;20439;-76
2022/10/16 10:02:29;;;;;;;11.73;10.23;;;;;;;;;;5067840;28;20035;-76
2022/10/16 10:04:54;;;;;;;13.63;12.18;;;;;;;;;;5071576;28;20032;-75
2022/10/16 10:07:23;;;;;;;12.65;11.30;;;;;;;;;;5065838;28;20020;-76
2022/10/16 10:09:48;;;;;;;10.47;8.60;;;;;;;;;;5078738;28;20120;-77
2022/10/16 10:12:20;;;;;;;12.65;9.73;;;;;;;;;;5080302;28;20111;-76
2022/10/16 10:14:53;;;;;;;8.57;7.47;;;;;;;;;;5070982;28;20503;-76
2022/10/16 10:17:20;;;;;;;10.57;8.13;;;;;;;;;;5067059;28;20123;-77
2022/10/16 10:19:49;;;;;;;11.13;9.45;;;;;;;;;;5080748;28;20034;-75
2022/10/16 10:22:24;;;;;;;11.35;9.95;;;;;;;;;;5080710;28;20030;-77
2022/10/16 10:24:56;;;;;;;11.15;7.53;;;;;;;;;;5072596;28;20367;-77
2022/10/16 10:27:26;;;;;;;10.95;9.55;;;;;;;;;;5078036;28;20443;-77
2022/10/16 10:29:51;;;;;;;9.48;8.55;;;;;;;;;;5080009;28;20441;-77
2022/10/16 10:32:26;;;;;;;9.15;8.05;;;;;;;;;;5081155;28;20127;-78
2022/10/16 10:35:14;;;;;;;11.00;9.88;;;;;;;;;;5080732;28;20239;-74
2022/10/16 10:37:59;;;;;;;9.00;8.10;;;;;;;;;;5072265;28;20043;-75
2022/10/16 10:40:37;;;;;;;12.93;11.68;;;;;;;;;;5081105;28;20256;-81
2022/10/16 10:43:17;;;;;;;9.70;8.70;;;;;;;;;;5081118;28;20027;-77
2022/10/16 10:45:52;;;;;;;8.27;6.75;;;;;;;;;;5079378;28;20036;-77
2022/10/16 10:48:26;;;;;;;11.32;10.18;;;;;;;;;;5080853;28;20048;-81
2022/10/16 10:51:03;;;;;;;10.32;9.10;;;;;;;;;;5081803;28;20473;-76
2022/10/16 10:53:29;;;;;;;8.73;7.78;;;;;;;;;;5072257;28;20020;-77
2022/10/16 10:55:59;;;;;;;8.30;6.03;;;;;;;;;;5083351;28;20034;-80
2022/10/16 10:58:27;;;;;;;8.27;5.60;;;;;;;;;;5084095;28;20024;-79
2022/10/16 11:00:56;;;;;;;9.60;5.70;;;;;;;;;;5063193;28;20107;-77
2022/10/16 11:03:31;;;;;;;8.80;7.90;;;;;;;;;;5070731;28;20593;-79
2022/10/16 11:05:58;;;;;;;7.93;6.75;;;;;;;;;;5083355;28;20763;-78
2022/10/16 11:08:32;;;;;;;8.57;5.97;;;;;;;;;;5082774;28;20077;-82
2022/10/16 11:10:59;;;;;;;7.68;5.97;;;;;;;;;;5069630;28;20028;-76
2022/10/16 11:13:34;;;;;;;6.68;5.32;;;;;;;;;;5076750;28;20039;-80
2022/10/16 11:16:01;;;;;;;10.70;8.23;;;;;;;;;;5070249;28;20040;-77
2022/10/16 11:18:32;;;;;;;6.95;5.55;;;;;;;;;;5070217;28;20449;-76
2022/10/16 11:21:02;;;;;;;23.63;21.08;;;;;;;;;;5071893;28;20104;-80
2022/10/16 11:23:47;;;;;;;12.10;10.73;;;;;;;;;;5070330;28;20036;-75
2022/10/16 11:26:16;;;;;;;11.13;7.93;;;;;;;;;;5069829;28;20020;-79
2022/10/16 11:28:54;;;;;;;19.80;14.68;;;;;;;;;;5070404;28;20355;-77
2022/10/16 11:31:22;;;;;;;23.48;17.75;;;;;;;;;;5069580;28;20469;-81
2022/10/16 11:33:53;;;;;;;12.60;11.10;;;;;;;;;;5069585;28;20470;-80
2022/10/16 11:36:23;;;;;;;7.95;7.07;;;;;;;;;;5069472;28;20024;-78
2022/10/16 11:38:48;;;;;;;;;;;;;;;;;;5070613;28;20115;-76
2022/10/16 11:41:13;;;;;;;8.67;7.60;;;;;;;;;;5070391;28;21073;-77
2022/10/16 11:43:40;;;;;;;8.30;5.57;;;;;;;;;;5070237;28;20031;-76
2022/10/16 11:46:12;;;;;;;7.00;5.30;;;;;;;;;;5077223;28;20110;-76
2022/10/16 11:48:48;;;;;;;9.48;5.63;;;;;;;;;;5082271;28;20469;-77
2022/10/16 11:51:36;;;;;;;6.72;5.70;;;;;;;;;;5081031;28;20020;-78
2022/10/16 11:54:01;;;;;;;10.82;4.90;;;;;;;;;;5082231;28;20495;-77
2022/10/16 11:56:27;;;;;;;5.30;4.78;;;;;;;;;;5081854;28;20085;-78
2022/10/16 11:58:55;;;;;;;9.65;8.57;;;;;;;;;;5082868;28;20427;-79
2022/10/16 12:01:27;;;;;;;5.38;4.88;;;;;;;;;;5081918;28;20038;-78
2022/10/16 12:04:01;;;;;;;6.50;5.10;;;;;;;;;;5081476;28;20140;-82
2022/10/16 12:06:34;;;;;;;9.75;8.70;;;;;;;;;;5081496;28;20042;-77
2022/10/16 12:09:00;;;;;;;7.63;4.68;;;;;;;;;;5080930;28;20031;-76
2022/10/16 12:11:28;;;;;;;17.58;11.50;;;;;;;;;;5082915;28;20031;-76
2022/10/16 12:14:17;;;;;;;10.85;8.90;;;;;;;;;;5081815;28;20031;-78
2022/10/16 12:16:56;;;;;;;5.75;4.85;;;;;;;;;;5081214;28;20032;-78
2022/10/16 12:19:22;;;;;;;5.22;3.70;;;;;;;;;;5082544;28;20054;-77
2022/10/16 12:21:47;;;;;;;6.63;5.75;;;;;;;;;;5081457;28;20055;-77
2022/10/16 12:24:40;;;;;;;6.13;5.13;;;;;;;;;;5081714;28;20028;-79
2022/10/16 12:27:20;;;;;;;6.00;4.15;;;;;;;;;;5079082;28;20501;-77
2022/10/16 12:29:45;;;;;;;5.18;4.68;;;;;;;;;;5081461;28;20639;-76
2022/10/16 12:32:28;;;;;;;5.53;4.18;;;;;;;;;;5079549;28;20036;-80
2022/10/16 12:34:53;;;;;;;8.15;5.93;;;;;;;;;;5068443;28;20119;-82
2022/10/16 12:37:18;;;;;;;6.00;4.25;;;;;;;;;;5068610;28;20468;-77
2022/10/16 12:39:44;;;;;;;7.03;6.20;;;;;;;;;;5068158;28;20020;-76
2022/10/16 12:42:28;;;;;;;6.22;5.63;;;;;;;;;;5079133;28;20032;-77
2022/10/16 12:44:54;;;;;;;4.82;4.28;;;;;;;;;;5079284;28;20050;-76
2022/10/16 12:47:31;;;;;;;5.32;4.20;;;;;;;;;;5081009;28;20043;-77
2022/10/16 12:49:57;;;;;;;7.30;3.65;;;;;;;;;;5080655;28;20105;-76
2022/10/16 12:52:25;;;;;;;6.05;4.15;;;;;;;;;;5080282;28;20067;-79
2022/10/16 12:54:50;;;;;;;5.97;5.18;;;;;;;;;;5081530;28;20039;-77
2022/10/16 12:57:34;;;;;;;15.40;13.80;;;;;;;;;;5080209;28;20024;-80
2022/10/16 13:00:23;;;;;;;10.32;6.45;;;;;;;;;;5079698;28;20779;-78
2022/10/16 13:02:49;;;;;;;;;;;;;;;;;;5080285;28;20136;-77
2022/10/16 13:05:17;;;;;;;5.70;5.10;;;;;;;;;;5081415;28;23259;-79
2022/10/16 13:08:01;;;;;;;8.25;7.25;;;;;;;;;;5080447;28;20264;-76
2022/10/16 13:10:30;;;;;;;5.10;4.60;;;;;;;;;;5076545;28;20023;-76
2022/10/16 13:13:08;;;;;;;5.82;4.45;;;;;;;;;;5079314;28;20028;-76
2022/10/16 13:15:36;;;;;;;4.85;4.10;;;;;;;;;;5080799;28;20093;-79
2022/10/16 13:18:13;;;;;;;4.20;3.80;;;;;;;;;;5079941;28;20027;-76
2022/10/16 13:20:57;;;;;;;5.70;4.13;;;;;;;;;;5080817;28;20036;-77
2022/10/16 13:23:29;;;;;;;5.57;4.07;;;;;;;;;;5080337;28;20028;-77
2022/10/16 13:26:01;;;;;;;4.90;4.05;;;;;;;;;;5080509;28;20119;-76
2022/10/16 13:28:33;;;;;;;4.72;4.28;;;;;;;;;;5080466;28;20031;-78
2022/10/16 13:31:00;;;;;;;5.75;4.30;;;;;;;;;;5080583;28;20396;-77
2022/10/16 13:33:31;;;;;;;5.50;4.40;;;;;;;;;;5074525;28;20026;-77
2022/10/16 13:35:57;;;;;;;4.75;3.83;;;;;;;;;;5068264;28;20667;-77
2022/10/16 13:38:24;;;;;;;6.05;4.30;;;;;;;;;;5075251;28;20097;-77
2022/10/16 13:40:49;;;;;;;5.10;3.83;;;;;;;;;;5080430;28;20037;-81
2022/10/16 13:43:16;;;;;;;6.18;5.57;;;;;;;;;;5080120;28;20024;-78
2022/10/16 13:45:52;;;;;;;5.53;4.95;;;;;;;;;;5080748;28;20435;-78
2022/10/16 13:48:17;;;;;;;9.23;5.28;;;;;;;;;;5078668;28;20481;-77
2022/10/16 13:50:42;;;;;;;7.57;4.72;;;;;;;;;;5074514;28;20044;-82
2022/10/16 13:53:13;;;;;;;6.78;4.60;;;;;;;;;;5067837;28;23915;-76
2022/10/16 13:55:38;;;;;;;4.93;4.25;;;;;;;;;;5067023;28;20107;-76
2022/10/16 13:58:08;;;;;;;10.23;6.57;;;;;;;;;;5065993;28;20111;-78
2022/10/16 14:00:33;;;;;;;8.38;6.00;;;;;;;;;;5073564;28;20056;-76
2022/10/16 14:03:03;;;;;;;9.40;7.45;;;;;;;;;;5074424;28;20359;-75
2022/10/16 14:05:28;;;;;;;12.43;10.13;;;;;;;;;;5073393;28;20024;-75
2022/10/16 14:07:54;;;;;;;152.27;87.70;;;;;;;;;;5077764;28;20308;-75
2022/10/16 14:10:22;;;;;;;88.22;52.83;;;;;;;;;;5067679;28;20028;-77
2022/10/16 14:12:58;;;;;;;59.47;42.87;;;;;;;;;;5067843;28;20028;-75
2022/10/16 14:15:24;;;;;;;32.85;25.05;;;;;;;;;;5064197;28;20285;-75
2022/10/16 14:17:50;;;;;;;42.83;28.35;;;;;;;;;;5066685;28;20778;-80
2022/10/16 14:20:16;;;;;;;43.55;32.95;;;;;;;;;;5067256;28;20039;-75
2022/10/16 14:22:42;;;;;;;16.60;13.52;;;;;;;;;;5065644;28;20466;-77
2022/10/16 14:25:16;;;;;;;11.73;9.45;;;;;;;;;;5079119;28;20131;-74
2022/10/16 14:27:42;;;;;;;9.68;6.88;;;;;;;;;;5077867;28;20151;-76
2022/10/16 14:30:07;;;;;;;8.30;7.50;;;;;;;;;;5076948;28;20170;-76